Time;durP1;ratioP1;P1;durP2;ratioP2;P2;SDS_P1;SDS_P2;PMS_P1;PMS_P2;Temp;Humidity;BMP_temperature;BMP_pressure;BME280_temperature;BME280_humidity;BME280_pressure;Samples;Min_cycle;Max_cycle;Signal;HPM_P1;HPM_P2
2022/03/16 00:01:47;;;;;;;29.20;12.50;;;;;;;8.69;58.95;100685.83;106307;1271;22600;-59
2022/03/16 00:04:19;;;;;;;27.50;12.80;;;;;;;8.68;58.67;100691.30;106164;1271;22770;-59
2022/03/16 00:06:50;;;;;;;24.40;11.60;;;;;;;8.68;58.60;100695.98;106288;1270;23006;-58
2022/03/16 00:09:22;;;;;;;34.40;14.40;;;;;;;8.69;58.59;100695.20;106109;1271;24313;-59
2022/03/16 00:11:53;;;;;;;32.70;15.30;;;;;;;8.70;58.56;100687.48;106205;1270;22557;-58
2022/03/16 00:14:25;;;;;;;33.90;14.50;;;;;;;8.71;58.51;100687.42;106244;1270;25239;-59
2022/03/16 00:16:56;;;;;;;31.10;14.00;;;;;;;8.72;58.50;100686.04;106078;1270;24435;-58
2022/03/16 00:19:27;;;;;;;32.10;13.90;;;;;;;8.73;58.67;100688.14;106038;1270;22973;-60
2022/03/16 00:22:00;;;;;;;32.80;14.80;;;;;;;8.73;58.81;100690.46;106035;1271;26939;-58
2022/03/16 00:24:31;;;;;;;32.40;14.60;;;;;;;8.73;59.03;100686.81;106512;1270;22938;-57
2022/03/16 00:27:03;;;;;;;38.00;15.60;;;;;;;8.72;59.43;100690.02;106171;1271;25295;-59
2022/03/16 00:29:35;;;;;;;33.00;14.60;;;;;;;8.70;59.18;100693.84;106120;1271;25489;-57
2022/03/16 00:32:08;;;;;;;35.80;16.20;;;;;;;8.69;59.22;100696.30;106043;1271;22545;-60
2022/03/16 00:34:40;;;;;;;33.50;16.30;;;;;;;8.67;59.71;100692.84;106111;1271;22525;-61
2022/03/16 00:37:11;;;;;;;38.30;17.70;;;;;;;8.66;59.79;100698.13;106391;1271;22577;-59
2022/03/16 00:39:43;;;;;;;37.20;17.30;;;;;;;8.64;60.05;100700.98;106210;1270;24287;-59
2022/03/16 00:42:15;;;;;;;34.50;15.80;;;;;;;8.61;59.87;100698.38;106197;1269;22570;-60
2022/03/16 00:44:46;;;;;;;33.10;14.80;;;;;;;8.60;60.36;100705.51;106182;1271;27473;-58
2022/03/16 00:47:18;;;;;;;34.80;15.70;;;;;;;8.56;60.60;100707.86;106209;1271;24422;-60
2022/03/16 00:49:50;;;;;;;30.30;14.90;;;;;;;8.54;60.92;100710.66;106131;1271;22547;-60
2022/03/16 00:52:21;;;;;;;31.20;13.20;;;;;;;8.52;61.01;100709.02;106235;1271;22570;-57
2022/03/16 00:54:54;;;;;;;33.30;14.50;;;;;;;8.50;61.11;100710.58;106287;1271;26582;-57
2022/03/16 00:57:25;;;;;;;32.20;14.70;;;;;;;8.49;61.20;100713.41;106141;1270;25278;-59
2022/03/16 00:59:58;;;;;;;31.60;13.50;;;;;;;8.47;61.35;100716.58;106025;1271;26209;-60
2022/03/16 01:02:29;;;;;;;29.90;13.50;;;;;;;8.45;61.36;100718.70;106035;1269;24278;-59
2022/03/16 01:05:02;;;;;;;28.20;13.20;;;;;;;8.44;61.54;100722.09;106203;1271;22541;-57
2022/03/16 01:07:33;;;;;;;30.40;13.60;;;;;;;8.42;61.66;100720.91;106115;1271;22558;-58
2022/03/16 01:10:06;;;;;;;29.60;13.20;;;;;;;8.40;62.04;100724.45;105868;1272;22547;-59
2022/03/16 01:12:37;;;;;;;23.90;10.60;;;;;;;8.37;62.45;100723.46;106370;1271;25232;-59
2022/03/16 01:15:10;;;;;;;28.70;12.90;;;;;;;8.33;62.68;100727.58;106186;1271;22790;-58
2022/03/16 01:17:41;;;;;;;26.90;12.20;;;;;;;8.29;63.33;100727.33;106240;1270;23335;-59
2022/03/16 01:20:13;;;;;;;28.90;13.10;;;;;;;8.23;63.62;100729.19;106065;1271;24296;-55
2022/03/16 01:22:45;;;;;;;26.20;11.20;;;;;;;8.16;64.11;100732.30;106159;1270;22625;-59
2022/03/16 01:25:16;;;;;;;25.30;11.30;;;;;;;8.10;64.30;100732.24;106194;1271;22765;-58
2022/03/16 01:27:48;;;;;;;23.90;12.00;;;;;;;8.06;64.87;100733.90;106353;1271;24338;-59
2022/03/16 01:30:19;;;;;;;24.40;12.70;;;;;;;7.98;65.38;100733.77;106122;1272;22537;-57
2022/03/16 01:32:51;;;;;;;24.20;11.60;;;;;;;7.91;65.76;100728.63;106236;1271;22548;-59
2022/03/16 01:35:23;;;;;;;24.60;12.50;;;;;;;7.84;66.05;100730.92;106006;1271;22609;-58
2022/03/16 01:37:55;;;;;;;23.80;12.90;;;;;;;7.80;66.42;100726.92;106260;1270;26242;-60
2022/03/16 01:40:26;;;;;;;24.60;12.40;;;;;;;7.76;66.59;100732.01;106195;1271;22539;-56
2022/03/16 01:42:58;;;;;;;25.50;13.20;;;;;;;7.71;66.70;100735.33;106426;1270;24243;-60
2022/03/16 01:45:29;;;;;;;26.40;13.00;;;;;;;7.68;67.07;100733.29;106381;1270;25485;-60
2022/03/16 01:48:01;;;;;;;28.70;14.20;;;;;;;7.64;67.26;100736.21;105988;1271;22691;-58
2022/03/16 01:50:33;;;;;;;28.40;14.40;;;;;;;7.62;67.48;100735.08;106141;1270;24254;-57
2022/03/16 01:53:04;;;;;;;27.00;13.10;;;;;;;7.60;67.55;100735.24;106144;1270;26378;-57
2022/03/16 01:55:36;;;;;;;29.00;14.70;;;;;;;7.59;67.90;100739.48;105941;1271;24285;-58
2022/03/16 01:58:09;;;;;;;27.80;15.20;;;;;;;7.56;67.97;100737.58;106018;1271;22579;-60
2022/03/16 02:00:41;;;;;;;27.00;13.40;;;;;;;7.56;68.16;100737.75;106084;1271;22561;-58
2022/03/16 02:03:12;;;;;;;28.20;14.10;;;;;;;7.55;68.27;100739.36;106113;1269;22550;-57
2022/03/16 02:05:44;;;;;;;28.20;13.80;;;;;;;7.56;68.35;100742.34;106113;1271;25315;-58
2022/03/16 02:08:15;;;;;;;27.30;14.30;;;;;;;7.56;68.41;100744.97;106129;1271;24320;-58
2022/03/16 02:10:47;;;;;;;28.80;15.20;;;;;;;7.57;68.58;100749.07;106094;1271;22542;-60
2022/03/16 02:13:19;;;;;;;28.70;15.50;;;;;;;7.58;68.67;100750.30;106244;1271;22985;-58
2022/03/16 02:15:51;;;;;;;30.90;15.80;;;;;;;7.60;68.63;100753.80;106031;1270;22534;-59
2022/03/16 02:18:22;;;;;;;28.40;16.30;;;;;;;7.61;68.83;100752.91;106123;1271;22573;-59
2022/03/16 02:20:54;;;;;;;30.20;16.80;;;;;;;7.62;68.87;100754.70;106173;1270;24274;-57
2022/03/16 02:23:26;;;;;;;29.70;15.90;;;;;;;7.62;69.10;100755.73;106077;1270;22543;-57
2022/03/16 02:25:57;;;;;;;28.00;14.80;;;;;;;7.62;69.03;100760.50;106288;1271;22988;-57
2022/03/16 02:28:29;;;;;;;31.50;15.10;;;;;;;7.61;69.16;100761.71;106110;1270;22529;-56
2022/03/16 02:31:00;;;;;;;32.80;16.70;;;;;;;7.61;69.34;100764.27;105982;1270;22523;-58
2022/03/16 02:33:32;;;;;;;36.70;16.90;;;;;;;7.59;69.63;100771.85;106162;1270;25486;-60
2022/03/16 02:36:03;;;;;;;33.10;16.10;;;;;;;7.59;69.52;100777.75;106160;1270;25349;-59
2022/03/16 02:38:35;;;;;;;32.70;16.40;;;;;;;7.60;69.56;100777.01;106114;1270;25306;-57
2022/03/16 02:41:07;;;;;;;30.00;14.80;;;;;;;7.60;69.43;100781.98;106177;1271;22544;-59
2022/03/16 02:43:39;;;;;;;28.40;14.70;;;;;;;7.60;69.56;100781.42;105772;1270;346777;-57
2022/03/16 02:46:10;;;;;;;28.30;14.80;;;;;;;7.60;69.92;100779.76;106179;1269;22560;-60
2022/03/16 02:48:42;;;;;;;32.60;16.70;;;;;;;7.59;70.21;100783.30;106051;1270;22551;-58
2022/03/16 02:51:13;;;;;;;29.40;15.60;;;;;;;7.56;70.28;100783.89;106127;1270;22540;-57
2022/03/16 02:53:46;;;;;;;33.00;16.40;;;;;;;7.54;70.29;100790.59;106037;1270;22545;-55
2022/03/16 02:56:17;;;;;;;29.30;14.60;;;;;;;7.54;70.28;100792.50;106093;1270;24659;-56
2022/03/16 02:58:48;;;;;;;30.10;14.80;;;;;;;7.54;70.25;100796.23;106002;1270;24214;-59
2022/03/16 03:01:20;;;;;;;37.50;16.70;;;;;;;7.55;70.59;100804.63;106212;1270;22978;-58
2022/03/16 03:03:51;;;;;;;31.50;16.00;;;;;;;7.52;70.78;100806.38;106129;1270;24278;-56
2022/03/16 03:06:23;;;;;;;29.60;15.50;;;;;;;7.49;71.06;100810.68;106087;1270;24317;-58
2022/03/16 03:08:54;;;;;;;31.60;16.80;;;;;;;7.42;71.25;100812.02;106037;1270;22558;-57
2022/03/16 03:11:27;;;;;;;25.20;13.90;;;;;;;7.34;71.31;100808.98;106016;1270;22650;-56
2022/03/16 03:13:58;;;;;;;29.20;15.10;;;;;;;7.27;71.65;100816.41;106024;1270;22764;-58
2022/03/16 03:16:30;;;;;;;24.50;13.80;;;;;;;7.16;71.90;100819.20;106174;1270;22608;-60
2022/03/16 03:19:01;;;;;;;29.80;15.10;;;;;;;7.09;72.00;100821.73;106008;1270;22581;-58
2022/03/16 03:21:33;;;;;;;30.70;15.40;;;;;;;7.05;72.22;100824.23;106159;1270;22701;-57
2022/03/16 03:24:06;;;;;;;28.10;14.90;;;;;;;7.03;72.37;100829.52;106237;1270;22620;-57
2022/03/16 03:26:37;;;;;;;26.90;15.70;;;;;;;7.02;72.45;100831.70;106038;1270;23086;-58
2022/03/16 03:29:10;;;;;;;29.50;14.20;;;;;;;7.00;72.61;100837.54;105961;1270;22528;-59
2022/03/16 03:31:41;;;;;;;25.80;14.00;;;;;;;6.97;72.83;100835.73;106129;1271;22616;-58
2022/03/16 03:34:12;;;;;;;28.10;14.70;;;;;;;6.90;72.94;100834.27;106026;1270;22981;-60
2022/03/16 03:36:44;;;;;;;27.20;15.10;;;;;;;6.83;73.15;100834.16;105969;1270;25592;-59
2022/03/16 03:39:16;;;;;;;26.60;13.90;;;;;;;6.77;73.42;100836.13;106323;1270;22547;-57
2022/03/16 03:41:48;;;;;;;26.70;13.90;;;;;;;6.72;73.68;100838.82;106021;1270;22573;-58
2022/03/16 03:44:19;;;;;;;27.90;14.80;;;;;;;6.66;73.94;100838.98;106097;1270;22646;-57
2022/03/16 03:46:51;;;;;;;26.70;14.50;;;;;;;6.62;73.88;100842.98;106171;1270;22592;-57
2022/03/16 03:49:22;;;;;;;25.70;13.80;;;;;;;6.63;74.10;100843.75;105916;1270;22539;-63
2022/03/16 03:51:53;;;;;;;26.20;13.50;;;;;;;6.63;74.23;100843.67;106037;1270;22585;-57
2022/03/16 03:54:26;;;;;;;25.70;13.60;;;;;;;6.63;74.26;100846.13;106153;1270;22617;-59
2022/03/16 03:56:58;;;;;;;28.10;15.20;;;;;;;6.65;74.25;100853.77;106012;1270;25519;-59
2022/03/16 03:59:29;;;;;;;25.70;14.50;;;;;;;6.68;73.97;100855.90;106033;1267;26470;-58
2022/03/16 04:02:01;;;;;;;27.40;14.30;;;;;;;6.71;74.18;100861.52;105991;1270;22567;-57
2022/03/16 04:04:32;;;;;;;28.90;14.00;;;;;;;6.75;74.32;100868.79;106103;1270;23089;-57
2022/03/16 04:07:04;;;;;;;28.30;14.90;;;;;;;6.76;74.34;100876.45;106039;1270;25961;-60
2022/03/16 04:09:35;;;;;;;27.50;14.90;;;;;;;6.79;74.35;100882.47;106105;1270;25603;-60
2022/03/16 04:12:08;;;;;;;25.80;14.60;;;;;;;6.77;74.80;100881.95;106054;1270;22543;-59
2022/03/16 04:14:40;;;;;;;29.40;15.80;;;;;;;6.74;74.90;100887.98;106074;1270;22554;-57
2022/03/16 04:17:11;;;;;;;31.90;16.00;;;;;;;6.73;75.04;100889.21;106023;1269;22551;-58
2022/03/16 04:19:43;;;;;;;30.20;16.80;;;;;;;6.67;75.23;100893.88;106112;1270;25195;-57
2022/03/16 04:22:15;;;;;;;31.60;16.10;;;;;;;6.62;75.38;100897.91;105994;1270;22566;-59
2022/03/16 04:24:46;;;;;;;27.20;15.30;;;;;;;6.58;75.61;100903.48;106095;1270;25353;-59
2022/03/16 04:27:17;;;;;;;30.10;15.40;;;;;;;6.54;75.80;100901.68;106132;1270;23692;-59
2022/03/16 04:29:49;;;;;;;30.60;16.70;;;;;;;6.48;76.06;100906.80;106124;1270;24348;-59
2022/03/16 04:32:20;;;;;;;36.30;17.80;;;;;;;6.44;76.10;100906.38;106164;1270;22557;-58
2022/03/16 04:34:52;;;;;;;33.20;18.60;;;;;;;6.43;76.31;100916.86;105993;1270;22549;-58
2022/03/16 04:37:24;;;;;;;34.90;19.50;;;;;;;6.41;76.58;100924.11;106073;1270;22546;-60
2022/03/16 04:39:58;;;;;;;35.10;18.50;;;;;;;6.38;76.69;100925.84;106354;1270;22535;-60
2022/03/16 04:42:30;;;;;;;32.10;17.70;;;;;;;6.38;76.68;100926.11;106188;1269;22532;-60
2022/03/16 04:45:01;;;;;;;31.20;17.60;;;;;;;6.35;77.08;100930.77;105929;1270;22630;-57
2022/03/16 04:47:32;;;;;;;31.70;16.80;;;;;;;6.30;77.24;100929.31;106133;1270;24262;-58
2022/03/16 04:50:05;;;;;;;31.50;17.80;;;;;;;6.26;77.54;100932.27;105891;1270;25397;-61
2022/03/16 04:52:45;;;;;;;32.20;17.30;;;;;;;6.20;77.79;100935.58;105994;1270;22605;-57
2022/03/16 04:55:17;;;;;;;33.20;18.30;;;;;;;6.16;78.08;100937.48;105996;1270;22665;-59
2022/03/16 04:57:49;;;;;;;35.60;19.30;;;;;;;6.13;78.57;100943.83;106812;1264;25924;-56
2022/03/16 05:00:21;;;;;;;36.30;20.50;;;;;;;6.10;78.49;100947.94;105934;1269;24230;-57
2022/03/16 05:02:52;;;;;;;38.30;20.90;;;;;;;6.08;78.67;100949.65;106463;1268;22566;-58
2022/03/16 05:05:24;;;;;;;42.60;23.40;;;;;;;6.05;78.96;100955.95;105955;1271;22540;-58
2022/03/16 05:07:55;;;;;;;40.90;22.40;;;;;;;6.03;79.17;100957.60;106141;1268;25246;-59
2022/03/16 05:10:26;;;;;;;40.30;22.60;;;;;;;5.99;79.81;100953.02;106024;1271;25210;-57
2022/03/16 05:12:58;;;;;;;41.10;22.00;;;;;;;5.95;80.19;100952.39;106050;1270;22576;-56
2022/03/16 05:15:29;;;;;;;39.20;22.80;;;;;;;5.91;80.31;100950.20;105986;1267;22527;-59
2022/03/16 05:18:01;;;;;;;43.20;25.30;;;;;;;5.88;80.08;100950.88;106019;1271;22567;-58
2022/03/16 05:20:32;;;;;;;41.90;24.60;;;;;;;5.88;80.20;100950.96;106118;1268;22689;-57
2022/03/16 05:23:03;;;;;;;48.80;26.30;;;;;;;5.86;80.18;100956.55;106053;1271;27652;-59
2022/03/16 05:25:35;;;;;;;52.90;27.70;;;;;;;5.87;80.03;100963.11;105980;1271;24208;-59
2022/03/16 05:28:07;;;;;;;47.80;27.80;;;;;;;5.88;80.15;100962.61;105989;1268;22698;-57
2022/03/16 05:30:38;;;;;;;50.00;30.50;;;;;;;5.90;80.07;100966.68;106243;1268;22540;-58
2022/03/16 05:33:10;;;;;;;45.70;28.10;;;;;;;5.94;79.99;100971.83;106170;1270;24269;-58
2022/03/16 05:35:42;;;;;;;48.50;28.20;;;;;;;5.98;79.89;100970.38;106063;1268;24282;-56
2022/03/16 05:38:13;;;;;;;51.20;28.20;;;;;;;6.01;79.91;100970.08;106119;1268;23063;-59
2022/03/16 05:40:45;;;;;;;49.90;27.40;;;;;;;6.02;80.08;100968.61;106073;1271;22528;-58
2022/03/16 05:43:17;;;;;;;52.90;27.30;;;;;;;6.02;80.29;100971.48;105983;1268;25273;-59
2022/03/16 05:45:48;;;;;;;47.30;26.90;;;;;;;6.01;80.43;100972.05;106032;1268;22604;-57
2022/03/16 05:48:20;;;;;;;46.20;26.50;;;;;;;6.01;80.47;100973.63;106195;1268;25358;-58
2022/03/16 05:50:51;;;;;;;44.80;26.70;;;;;;;6.00;80.62;100976.02;106166;1268;22525;-58
2022/03/16 05:53:23;;;;;;;43.00;24.60;;;;;;;6.00;80.84;100973.66;106163;1271;22537;-60
2022/03/16 05:55:54;;;;;;;47.80;27.00;;;;;;;5.98;81.05;100966.98;106097;1271;23875;-59
2022/03/16 05:58:26;;;;;;;42.20;24.50;;;;;;;5.96;81.25;100972.73;106080;1268;22688;-59
2022/03/16 06:00:57;;;;;;;45.80;25.20;;;;;;;5.94;81.57;100980.83;105909;1271;24438;-59
2022/03/16 06:03:29;;;;;;;43.50;25.70;;;;;;;5.93;81.81;100987.67;106136;1271;22626;-58
2022/03/16 06:06:02;;;;;;;40.70;22.50;;;;;;;5.93;81.77;100994.34;109207;1267;22557;-58
2022/03/16 06:08:33;;;;;;;45.20;24.60;;;;;;;5.94;82.20;100997.87;106126;1271;22539;-58
2022/03/16 06:11:04;;;;;;;45.00;26.30;;;;;;;5.96;82.31;100999.19;109798;1270;22364;-59
2022/03/16 06:13:35;;;;;;;44.70;25.50;;;;;;;5.98;82.57;101004.19;107244;1270;24453;-60
2022/03/16 06:16:07;;;;;;;44.50;24.60;;;;;;;6.00;82.85;101002.40;105903;1271;22544;-58
2022/03/16 06:18:39;;;;;;;50.20;25.80;;;;;;;6.02;83.17;101003.45;105956;1271;22566;-58
2022/03/16 06:21:10;;;;;;;41.00;24.00;;;;;;;6.06;83.91;101011.63;106060;1271;23098;-58
2022/03/16 06:23:42;;;;;;;49.30;26.50;;;;;;;6.08;83.82;101020.20;105973;1270;25113;-58
2022/03/16 06:26:14;;;;;;;47.80;27.00;;;;;;;6.11;83.73;101028.30;106127;1271;22865;-58
2022/03/16 06:28:46;;;;;;;47.30;27.50;;;;;;;6.14;83.46;101032.73;106161;1270;22551;-59
2022/03/16 06:31:17;;;;;;;48.80;28.20;;;;;;;6.17;83.59;101036.55;106067;1271;24288;-59
2022/03/16 06:33:49;;;;;;;47.60;27.80;;;;;;;6.21;83.65;101045.02;106042;1270;24289;-59
2022/03/16 06:36:21;;;;;;;48.60;28.90;;;;;;;6.24;83.62;101039.32;106094;1271;25444;-59
2022/03/16 06:38:52;;;;;;;51.40;28.50;;;;;;;6.28;83.46;101045.27;106101;1271;24258;-58
2022/03/16 06:41:24;;;;;;;52.00;29.60;;;;;;;6.31;83.48;101044.80;106006;1271;24230;-58
2022/03/16 06:43:55;;;;;;;50.70;28.60;;;;;;;6.35;83.80;101053.42;106025;1270;22582;-59
2022/03/16 06:46:28;;;;;;;54.70;29.90;;;;;;;6.38;83.71;101053.96;106273;1269;22615;-60
2022/03/16 06:49:00;;;;;;;52.40;29.90;;;;;;;6.44;83.41;101063.11;106589;1269;25904;-61
2022/03/16 06:51:33;;;;;;;54.80;29.40;;;;;;;6.50;83.18;101069.00;106592;1270;22550;-58
2022/03/16 06:54:05;;;;;;;59.90;32.70;;;;;;;6.56;83.14;101072.20;106419;1271;24248;-58
2022/03/16 06:56:37;;;;;;;60.30;33.20;;;;;;;6.62;83.29;101084.66;106428;1271;22636;-58
2022/03/16 06:59:09;;;;;;;57.10;31.60;;;;;;;6.69;83.17;101086.89;106526;1271;25000;-58
2022/03/16 07:01:41;;;;;;;59.40;33.60;;;;;;;6.75;83.14;101092.44;106481;1271;22635;-59
2022/03/16 07:04:25;;;;;;;56.60;30.90;;;;;;;6.80;83.23;101100.48;106494;1271;22545;-59
2022/03/16 07:06:56;;;;;;;64.60;35.80;;;;;;;6.84;82.65;101103.65;106818;1271;22533;-59
2022/03/16 07:09:32;;;;;;;66.20;34.60;;;;;;;6.88;82.73;101103.88;106744;1268;22588;-57
2022/03/16 07:12:04;;;;;;;61.20;30.70;;;;;;;6.90;82.91;101109.67;106524;1271;22529;-59
2022/03/16 07:14:36;;;;;;;60.20;33.10;;;;;;;6.90;82.88;101108.80;106686;1271;22654;-59
2022/03/16 07:17:08;;;;;;;59.30;31.00;;;;;;;6.90;82.65;101112.30;106686;1271;24357;-55
2022/03/16 07:19:40;;;;;;;62.70;35.50;;;;;;;6.89;82.81;101114.55;106615;1271;22551;-57
2022/03/16 07:22:11;;;;;;;58.60;33.10;;;;;;;6.88;82.81;101111.16;106628;1271;22929;-59
2022/03/16 07:24:44;;;;;;;64.40;35.40;;;;;;;6.87;82.80;101113.21;107685;1271;22550;-60
2022/03/16 07:27:15;;;;;;;66.50;37.30;;;;;;;6.91;82.75;101114.18;106680;1271;22533;-59
2022/03/16 07:29:47;;;;;;;63.00;35.80;;;;;;;6.93;82.84;101118.83;107352;1269;26593;-61
2022/03/16 07:32:18;;;;;;;67.20;37.40;;;;;;;6.93;82.71;101123.00;106687;1271;24221;-58
2022/03/16 07:34:50;;;;;;;71.80;39.10;;;;;;;6.96;82.55;101130.88;106648;1270;23928;-61
2022/03/16 07:37:23;;;;;;;66.90;37.20;;;;;;;7.01;82.68;101130.91;106652;1271;22553;-60
2022/03/16 07:39:55;;;;;;;72.10;37.20;;;;;;;7.03;82.98;101128.64;106592;1270;25378;-59
2022/03/16 07:42:27;;;;;;;73.40;39.30;;;;;;;7.00;82.95;101123.78;106954;1270;22546;-59
2022/03/16 07:44:59;;;;;;;72.00;39.60;;;;;;;6.99;82.69;101126.30;106640;1271;24204;-59
2022/03/16 07:47:31;;;;;;;73.20;41.00;;;;;;;6.98;82.69;101128.45;106640;1270;22996;-59
2022/03/16 07:50:03;;;;;;;73.50;43.60;;;;;;;6.98;82.60;101130.51;106680;1271;22758;-60
2022/03/16 07:52:34;;;;;;;75.40;41.50;;;;;;;7.01;82.69;101132.73;106688;1271;22551;-58
2022/03/16 07:55:07;;;;;;;79.40;41.50;;;;;;;7.02;82.65;101131.69;106681;1271;23080;-60
2022/03/16 07:57:40;;;;;;;77.20;43.40;;;;;;;7.04;82.75;101137.19;106784;1271;22578;-59
2022/03/16 08:00:15;;;;;;;77.30;42.40;;;;;;;7.07;82.69;101136.97;106608;1270;22491;-61
2022/03/16 08:02:47;;;;;;;76.70;45.80;;;;;;;7.07;82.50;101138.45;106589;1271;22528;-60
2022/03/16 08:05:21;;;;;;;72.00;39.40;;;;;;;7.10;82.50;101138.33;106785;1270;22567;-60
2022/03/16 08:07:52;;;;;;;83.30;44.60;;;;;;;7.14;82.72;101139.94;106637;1271;24245;-59
2022/03/16 08:10:25;;;;;;;71.60;41.00;;;;;;;7.20;82.65;101138.54;106653;1271;25376;-59
2022/03/16 08:12:57;;;;;;;72.40;40.90;;;;;;;7.27;82.37;101141.14;106827;1269;22767;-59
2022/03/16 08:15:29;;;;;;;77.60;43.50;;;;;;;7.32;82.43;101141.48;106809;1271;23132;-60
2022/03/16 08:18:01;;;;;;;72.20;41.10;;;;;;;7.38;82.47;101144.03;106686;1270;22687;-60
2022/03/16 08:20:33;;;;;;;76.20;42.40;;;;;;;7.46;82.61;101143.45;106677;1271;22584;-59
2022/03/16 08:23:04;;;;;;;61.70;36.10;;;;;;;7.52;82.44;101147.17;106830;1270;23929;-60
2022/03/16 08:25:36;;;;;;;72.00;43.20;;;;;;;7.56;82.10;101145.94;106670;1271;22546;-57
2022/03/16 08:28:09;;;;;;;75.30;41.40;;;;;;;7.61;82.11;101146.61;106697;1271;22548;-60
2022/03/16 08:30:40;;;;;;;66.40;38.70;;;;;;;7.68;82.10;101150.02;106667;1270;22568;-60
2022/03/16 08:33:12;;;;;;;70.20;41.60;;;;;;;7.73;82.03;101150.51;106635;1271;22549;-60
2022/03/16 08:35:45;;;;;;;69.40;39.10;;;;;;;7.79;82.17;101152.33;106680;1269;26503;-59
2022/03/16 08:38:17;;;;;;;68.70;38.50;;;;;;;7.87;82.03;101149.23;106805;1270;25258;-59
2022/03/16 08:40:49;;;;;;;66.00;37.20;;;;;;;7.97;82.04;101155.87;106607;1271;22545;-58
2022/03/16 08:43:20;;;;;;;67.20;38.70;;;;;;;8.07;81.56;101159.96;106796;1271;24228;-58
2022/03/16 08:45:53;;;;;;;61.90;34.20;;;;;;;8.16;81.36;101165.05;106701;1271;24237;-61
2022/03/16 08:48:24;;;;;;;67.50;37.60;;;;;;;8.25;81.18;101164.95;106862;1270;22716;-59
2022/03/16 08:50:57;;;;;;;60.80;35.90;;;;;;;8.33;80.83;101169.36;106728;1268;24329;-59
2022/03/16 08:53:29;;;;;;;59.80;34.60;;;;;;;8.40;80.66;101175.92;106692;1271;26744;-60
2022/03/16 08:56:01;;;;;;;66.40;37.00;;;;;;;8.46;80.39;101175.58;106627;1268;25373;-58
2022/03/16 08:58:33;;;;;;;61.50;34.90;;;;;;;8.50;79.70;101181.10;106714;1268;22524;-58
2022/03/16 09:01:05;;;;;;;60.40;35.50;;;;;;;8.54;79.88;101181.61;106680;1271;22831;-61
2022/03/16 09:03:37;;;;;;;65.70;37.10;;;;;;;8.57;79.37;101183.59;106801;1270;22916;-58
2022/03/16 09:06:09;;;;;;;63.30;35.30;;;;;;;8.59;79.19;101190.36;106834;1271;22627;-59
2022/03/16 09:08:42;;;;;;;57.50;32.10;;;;;;;8.62;79.40;101196.02;106601;1270;22545;-61
2022/03/16 09:11:14;;;;;;;62.70;35.60;;;;;;;8.65;79.07;101193.20;106734;1270;22541;-61
2022/03/16 09:13:47;;;;;;;57.00;34.10;;;;;;;8.67;78.79;101198.48;106669;1271;26053;-59
2022/03/16 09:16:18;;;;;;;57.60;32.30;;;;;;;8.70;78.80;101196.17;106716;1270;25597;-60
2022/03/16 09:18:52;;;;;;;58.90;32.80;;;;;;;8.71;78.76;101197.30;106812;1271;27491;-60
2022/03/16 09:21:25;;;;;;;56.70;33.00;;;;;;;8.74;78.64;101197.38;106704;1271;25485;-59
2022/03/16 09:23:58;;;;;;;59.50;34.00;;;;;;;8.76;78.50;101203.94;106781;1271;22585;-60
2022/03/16 09:26:29;;;;;;;59.40;34.60;;;;;;;8.78;78.59;101207.94;106680;1271;22566;-59
2022/03/16 09:29:02;;;;;;;60.00;34.80;;;;;;;8.82;78.91;101205.98;106695;1270;22541;-58
2022/03/16 09:31:34;;;;;;;60.90;32.40;;;;;;;8.88;77.91;101216.15;106651;1270;24224;-58
2022/03/16 09:34:07;;;;;;;57.40;32.50;;;;;;;8.92;77.54;101214.99;106723;1270;25875;-59
2022/03/16 09:36:42;;;;;;;61.00;33.10;;;;;;;8.99;77.86;101205.25;106731;1270;22564;-59
2022/03/16 09:39:14;;;;;;;53.30;29.00;;;;;;;9.06;77.39;101209.38;106682;1271;22727;-58
2022/03/16 09:41:46;;;;;;;50.20;27.00;;;;;;;9.11;76.96;101211.53;106648;1270;22660;-59
2022/03/16 09:44:19;;;;;;;51.40;27.80;;;;;;;9.16;76.54;101210.20;106635;1270;25387;-59
2022/03/16 09:46:56;;;;;;;47.70;25.90;;;;;;;9.22;76.41;101211.76;106710;1269;24234;-60
2022/03/16 09:49:29;;;;;;;43.90;25.20;;;;;;;9.27;76.06;101210.71;106813;1270;23344;-58
2022/03/16 09:52:03;;;;;;;43.50;23.70;;;;;;;9.32;75.39;101212.77;106803;1271;25306;-59
2022/03/16 09:54:36;;;;;;;44.40;23.90;;;;;;;9.39;74.62;101219.73;106811;1269;25927;-59
2022/03/16 09:57:08;;;;;;;46.90;25.30;;;;;;;9.46;74.38;101219.34;106782;1270;25519;-58
2022/03/16 09:59:42;;;;;;;46.30;24.90;;;;;;;9.51;73.77;101225.67;106727;1271;25399;-58
2022/03/16 10:02:21;;;;;;;38.60;20.70;;;;;;;9.56;73.61;101223.05;106792;1270;24237;-60
2022/03/16 10:04:53;;;;;;;37.20;19.90;;;;;;;9.60;73.04;101228.64;106715;1271;24256;-60
2022/03/16 10:07:31;;;;;;;40.20;22.00;;;;;;;9.66;72.78;101226.45;106798;1269;22813;-58
2022/03/16 10:15:42;;;;;;;44.60;23.10;;;;;;;9.85;73.02;101228.64;106685;1271;22711;-59
2022/03/16 10:18:19;;;;;;;44.20;23.50;;;;;;;9.92;72.73;101232.66;106773;1271;22687;-59
2022/03/16 10:20:52;;;;;;;39.40;22.00;;;;;;;10.00;71.97;101234.32;106712;1271;22525;-58
2022/03/16 10:23:27;;;;;;;43.10;22.90;;;;;;;10.05;71.82;101230.30;106821;1271;22476;-59
2022/03/16 10:26:03;;;;;;;39.70;22.20;;;;;;;10.10;71.86;101238.67;106863;1271;22990;-59
2022/03/16 10:28:35;;;;;;;45.00;24.00;;;;;;;10.14;70.84;101241.89;106903;1271;23085;-58
2022/03/16 10:31:08;;;;;;;34.50;19.10;;;;;;;10.18;70.60;101241.67;106794;1271;25384;-59
2022/03/16 10:33:47;;;;;;;41.90;21.00;;;;;;;10.24;70.37;101245.52;106843;1270;22571;-60
2022/03/16 10:36:21;;;;;;;44.80;21.50;;;;;;;10.28;69.50;101248.48;106672;1271;22685;-59
2022/03/16 10:38:58;;;;;;;39.50;20.50;;;;;;;10.36;69.69;101249.89;106712;1271;22526;-59
2022/03/16 10:47:15;;;;;;;39.20;20.10;;;;;;;10.47;68.18;101260.14;106621;1270;22562;-60
2022/03/16 10:49:49;;;;;;;37.40;20.30;;;;;;;10.51;67.45;101268.08;106631;1271;25616;-59
2022/03/16 10:52:21;;;;;;;36.00;18.50;;;;;;;10.54;66.92;101270.13;106779;1270;22734;-59
2022/03/16 10:54:52;;;;;;;41.80;22.60;;;;;;;10.58;67.08;101267.52;106784;1269;22707;-61
2022/03/16 10:57:25;;;;;;;37.00;19.50;;;;;;;10.64;66.85;101269.20;106649;1270;24306;-60
2022/03/16 10:59:59;;;;;;;40.70;20.50;;;;;;;10.68;66.61;101273.84;106647;1270;22528;-60
2022/03/16 11:02:34;;;;;;;36.90;20.20;;;;;;;10.70;65.20;101274.95;107014;1270;22525;-60
2022/03/16 11:05:06;;;;;;;38.00;20.90;;;;;;;10.73;65.31;101274.52;106589;1270;23921;-59
2022/03/16 11:07:40;;;;;;;37.50;22.60;;;;;;;10.78;64.84;101281.47;106955;1269;22684;-60
2022/03/16 11:10:14;;;;;;;40.20;22.70;;;;;;;10.78;64.82;101282.02;106800;1270;22622;-59
2022/03/16 11:15:36;;;;;;;40.20;20.30;;;;;;;10.94;64.06;101282.20;106677;1270;22616;-59
2022/03/16 11:18:08;;;;;;;30.70;16.00;;;;;;;10.98;64.44;101285.63;106707;1270;22516;-61
2022/03/16 11:20:39;;;;;;;38.40;21.00;;;;;;;11.02;63.60;101284.44;106755;1271;25441;-59
2022/03/16 11:26:25;;;;;;;37.90;20.00;;;;;;;11.12;63.43;101283.56;106295;1273;22590;-60
2022/03/16 11:29:09;;;;;;;38.20;20.20;;;;;;;11.21;62.97;101281.92;106176;1273;25732;-60
2022/03/16 11:31:42;;;;;;;34.20;18.60;;;;;;;11.28;62.67;101280.48;106252;1273;22525;-61
2022/03/16 11:34:22;;;;;;;36.80;19.50;;;;;;;11.33;62.58;101279.94;106776;1273;22674;-60
2022/03/16 11:37:07;;;;;;;34.00;18.70;;;;;;;11.36;62.31;101284.95;106663;1273;22542;-58
2022/03/16 11:39:47;;;;;;;34.50;18.70;;;;;;;11.36;62.55;101287.04;106137;1273;25263;-59
2022/03/16 11:42:19;;;;;;;;;;;;;;;11.36;61.78;101287.04;106244;1273;22516;-59
2022/03/16 11:44:50;;;;;;;32.00;17.00;;;;;;;11.35;60.97;101285.48;106222;1274;22587;-61
2022/03/16 11:47:38;;;;;;;34.30;18.90;;;;;;;11.35;61.00;101292.59;106248;1273;22533;-60
2022/03/16 11:50:13;;;;;;;34.90;18.50;;;;;;;11.37;60.84;101288.03;106510;1273;22547;-61